Time,TemperatureF,DewpointF,PressureIn,WindDirection,WindDirectionDegrees,WindSpeedMPH,WindSpeedGustMPH,Humidity,HourlyPrecipIn,Conditions,Clouds,dailyrainin,SoftwareType,DateUTC
2013-02-23 00:00:00,0.0,0.0,30.24,ENE,73,5.4,5.8,0,0.00,,---,0.00,VWS V14.01,2013-02-23 05:00:00,
2013-02-23 00:01:00,0.0,0.0,30.24,East,83,4.0,5.4,0,0.00,,---,0.00,VWS V14.01,2013-02-23 05:01:00,
2013-02-23 00:06:00,0.0,0.0,30.24,East,85,4.0,5.8,0,0.00,,---,0.00,VWS V14.01,2013-02-23 05:06:00,
2013-02-23 00:07:00,0.0,0.0,30.24,ENE,74,5.4,5.8,0,0.00,,---,0.00,VWS V14.01,2013-02-23 05:07:00,
2013-02-23 00:12:00,0.0,0.0,30.24,ENE,68,4.0,5.4,0,0.00,,---,0.00,VWS V14.01,2013-02-23 05:12:00,
2013-02-23 00:15:00,0.0,0.0,30.24,ENE,75,4.0,5.4,0,0.00,,---,0.00,VWS V14.01,2013-02-23 05:15:00,
2013-02-23 00:20:00,0.0,0.0,30.24,ENE,57,3.1,4.9,0,0.00,,---,0.00,VWS V14.01,2013-02-23 05:20:00,
2013-02-23 00:26:00,0.0,0.0,30.24,ENE,72,3.1,4.9,0,0.00,,---,0.00,VWS V14.01,2013-02-23 05:26:00,
2013-02-23 00:31:00,0.0,0.0,30.24,ENE,68,3.6,4.9,0,0.00,,---,0.00,VWS V14.01,2013-02-23 05:31:00,
2013-02-23 00:37:00,0.0,0.0,30.24,East,80,4.9,5.4,0,0.00,,---,0.00,VWS V14.01,2013-02-23 05:37:00,
2013-02-23 00:42:00,0.0,0.0,30.24,ENE,74,3.6,5.4,0,0.00,,---,0.00,VWS V14.01,2013-02-23 05:42:00,
2013-02-23 00:47:00,0.0,0.0,30.24,ENE,70,4.0,4.0,0,0.00,,---,0.00,VWS V14.01,2013-02-23 05:47:00,
2013-02-23 00:52:00,0.0,0.0,30.24,NE,47,3.6,3.6,0,0.00,,---,0.00,VWS V14.01,2013-02-23 05:52:00,
2013-02-23 00:57:00,0.0,0.0,30.24,ENE,60,2.7,3.1,0,0.00,,---,0.00,VWS V14.01,2013-02-23 05:57:00,
2013-02-23 01:02:00,0.0,0.0,30.21,ENE,68,2.7,4.0,0,0.00,,---,0.00,VWS V14.01,2013-02-23 06:02:00,
2013-02-23 01:07:00,0.0,0.0,30.21,NE,51,4.0,4.0,0,0.00,,---,0.00,VWS V14.01,2013-02-23 06:07:00,
2013-02-23 01:12:00,0.0,0.0,30.21,ENE,63,3.6,4.0,0,0.04,,---,0.04,VWS V14.01,2013-02-23 06:12:00,
2013-02-23 01:17:00,0.0,0.0,30.24,ENE,78,4.0,4.0,0,0.04,,---,0.04,VWS V14.01,2013-02-23 06:17:00,
2013-02-23 01:22:00,0.0,0.0,30.24,ENE,72,5.4,5.8,0,0.04,,---,0.04,VWS V14.01,2013-02-23 06:22:00,
2013-02-23 01:27:00,0.0,0.0,30.21,NE,46,3.1,3.6,0,0.04,,---,0.04,VWS V14.01,2013-02-23 06:27:00,
2013-02-23 01:32:00,0.0,0.0,30.21,East,81,5.4,5.4,0,0.04,,---,0.04,VWS V14.01,2013-02-23 06:32:00,
2013-02-23 01:37:00,0.0,0.0,30.21,ENE,68,5.4,5.4,0,0.04,,---,0.04,VWS V14.01,2013-02-23 06:37:00,
2013-02-23 01:42:00,0.0,0.0,30.21,ENE,77,3.6,3.6,0,0.04,,---,0.04,VWS V14.01,2013-02-23 06:42:00,
2013-02-23 01:47:00,0.0,0.0,30.21,ENE,65,3.1,3.1,0,0.04,,---,0.04,VWS V14.01,2013-02-23 06:47:00,
2013-02-23 01:52:00,0.0,0.0,30.21,ENE,75,4.0,5.4,0,0.04,,---,0.04,VWS V14.01,2013-02-23 06:52:00,
2013-02-23 01:57:00,0.0,0.0,30.21,East,82,4.0,4.0,0,0.04,,---,0.04,VWS V14.01,2013-02-23 06:57:00,
2013-02-23 02:02:00,0.0,0.0,30.21,ENE,72,3.1,4.9,0,0.04,,---,0.00,VWS V14.01,2013-02-23 07:02:00,
2013-02-23 02:07:00,0.0,0.0,30.21,ENE,65,5.4,5.4,0,0.04,,---,0.04,VWS V14.01,2013-02-23 07:07:00,
2013-02-23 02:12:00,0.0,0.0,30.21,East,94,4.9,4.9,0,0.04,,---,0.04,VWS V14.01,2013-02-23 07:12:00,
2013-02-23 02:17:00,0.0,0.0,30.21,ESE,108,4.0,4.0,0,0.00,,---,0.04,VWS V14.01,2013-02-23 07:17:00,
2013-02-23 02:22:00,0.0,0.0,30.21,East,95,4.0,4.0,0,0.00,,---,0.04,VWS V14.01,2013-02-23 07:22:00,
2013-02-23 02:27:00,0.0,0.0,30.18,East,100,5.4,5.8,0,0.00,,---,0.04,VWS V14.01,2013-02-23 07:27:00,
2013-02-23 02:32:00,0.0,0.0,30.18,ESE,114,5.8,5.8,0,0.00,,---,0.04,VWS V14.01,2013-02-23 07:32:00,
2013-02-23 02:37:00,0.0,0.0,30.18,East,91,5.8,6.3,0,0.00,,---,0.04,VWS V14.01,2013-02-23 07:37:00,
2013-02-23 02:42:00,0.0,0.0,30.18,ESE,103,6.3,6.3,0,0.00,,---,0.00,VWS V14.01,2013-02-23 07:42:00,
2013-02-23 02:47:00,0.0,0.0,30.18,East,95,7.6,7.6,0,0.00,,---,0.04,VWS V14.01,2013-02-23 07:47:00,
2013-02-23 02:52:00,0.0,0.0,30.18,ESE,103,5.4,6.3,0,0.00,,---,0.04,VWS V14.01,2013-02-23 07:52:00,
2013-02-23 02:57:00,0.0,0.0,30.18,East,99,6.3,6.3,0,0.00,,---,0.04,VWS V14.01,2013-02-23 07:57:00,
2013-02-23 03:02:00,0.0,0.0,30.18,ENE,75,3.6,5.4,0,0.00,,---,0.04,VWS V14.01,2013-02-23 08:02:00,
2013-02-23 03:07:00,0.0,0.0,30.18,ESE,107,3.6,4.9,0,0.00,,---,0.04,VWS V14.01,2013-02-23 08:07:00,
2013-02-23 03:12:00,0.0,0.0,30.18,ESE,114,4.9,4.9,0,0.00,,---,0.04,VWS V14.01,2013-02-23 08:12:00,
2013-02-23 03:17:00,0.0,0.0,30.18,East,83,3.6,3.6,0,0.00,,---,0.04,VWS V14.01,2013-02-23 08:17:00,
2013-02-23 03:22:00,0.0,0.0,30.18,ENE,76,3.1,3.6,0,0.00,,---,0.04,VWS V14.01,2013-02-23 08:22:00,
2013-02-23 03:27:00,0.0,0.0,30.15,East,89,4.0,5.8,0,0.00,,---,0.00,VWS V14.01,2013-02-23 08:27:00,
2013-02-23 03:32:00,0.0,0.0,30.15,ENE,68,3.6,4.0,0,0.00,,---,0.00,VWS V14.01,2013-02-23 08:32:00,
2013-02-23 03:37:00,0.0,0.0,30.15,East,100,2.2,4.0,0,0.00,,---,0.04,VWS V14.01,2013-02-23 08:37:00,
2013-02-23 03:42:00,0.0,0.0,30.15,ENE,74,3.1,5.8,0,0.00,,---,0.04,VWS V14.01,2013-02-23 08:42:00,
2013-02-23 03:47:00,0.0,0.0,30.15,ENE,70,4.9,4.9,0,0.00,,---,0.04,VWS V14.01,2013-02-23 08:47:00,
2013-02-23 03:52:00,0.0,0.0,30.15,ESE,102,3.6,3.6,0,0.00,,---,0.04,VWS V14.01,2013-02-23 08:52:00,
2013-02-23 03:57:00,0.0,0.0,30.15,East,98,3.6,3.6,0,0.00,,---,0.04,VWS V14.01,2013-02-23 08:57:00,
2013-02-23 04:02:00,0.0,0.0,30.15,East,83,3.6,4.9,0,0.00,,---,0.04,VWS V14.01,2013-02-23 09:02:00,
2013-02-23 04:07:00,0.0,0.0,30.15,ENE,75,3.6,4.0,0,0.00,,---,0.04,VWS V14.01,2013-02-23 09:07:00,
2013-02-23 04:12:00,0.0,0.0,30.15,ENE,68,3.1,5.4,0,0.00,,---,0.04,VWS V14.01,2013-02-23 09:12:00,
2013-02-23 04:17:00,0.0,0.0,30.15,East,96,4.9,5.8,0,0.00,,---,0.04,VWS V14.01,2013-02-23 09:17:00,
2013-02-23 04:22:00,0.0,0.0,30.15,East,86,3.6,4.9,0,0.00,,---,0.04,VWS V14.01,2013-02-23 09:22:00,
2013-02-23 04:27:00,0.0,0.0,30.15,East,98,3.1,3.1,0,0.00,,---,0.04,VWS V14.01,2013-02-23 09:27:00,
2013-02-23 04:32:00,0.0,0.0,30.15,East,83,5.4,6.3,0,0.00,,---,0.04,VWS V14.01,2013-02-23 09:32:00,
2013-02-23 04:37:00,0.0,0.0,30.15,ESE,102,5.4,5.8,0,0.00,,---,0.04,VWS V14.01,2013-02-23 09:37:00,
2013-02-23 04:42:00,0.0,0.0,30.15,ESE,106,6.3,6.3,0,0.00,,---,0.04,VWS V14.01,2013-02-23 09:42:00,
2013-02-23 04:47:00,0.0,0.0,30.15,ESE,104,3.1,5.4,0,0.00,,---,0.04,VWS V14.01,2013-02-23 09:47:00,
2013-02-23 04:52:00,0.0,0.0,30.15,East,96,3.6,4.0,0,0.00,,---,0.00,VWS V14.01,2013-02-23 09:52:00,
2013-02-23 04:57:00,0.0,0.0,30.15,ESE,121,3.6,3.6,0,0.00,,---,0.00,VWS V14.01,2013-02-23 09:57:00,
2013-02-23 05:02:00,0.0,0.0,30.15,SE,127,5.8,5.8,0,0.00,,---,0.04,VWS V14.01,2013-02-23 10:02:00,
2013-02-23 05:07:00,0.0,0.0,30.15,East,84,2.7,4.0,0,0.00,,---,0.04,VWS V14.01,2013-02-23 10:07:00,
2013-02-23 05:12:00,0.0,0.0,30.15,ESE,107,3.6,5.8,0,0.00,,---,0.04,VWS V14.01,2013-02-23 10:12:00,
2013-02-23 05:17:00,0.0,0.0,30.15,ESE,118,3.6,3.6,0,0.00,,---,0.04,VWS V14.01,2013-02-23 10:17:00,
2013-02-23 05:22:00,0.0,0.0,30.15,ESE,110,2.7,4.0,0,0.00,,---,0.04,VWS V14.01,2013-02-23 10:22:00,
2013-02-23 05:27:00,0.0,0.0,30.12,ESE,117,3.6,4.0,0,0.00,,---,0.04,VWS V14.01,2013-02-23 10:27:00,
2013-02-23 05:32:00,0.0,0.0,30.12,ESE,116,2.7,5.4,0,0.00,,---,0.04,VWS V14.01,2013-02-23 10:32:00,
2013-02-23 05:37:00,0.0,0.0,30.12,ESE,106,7.6,7.6,0,0.00,,---,0.04,VWS V14.01,2013-02-23 10:37:00,
2013-02-23 05:42:00,0.0,0.0,30.12,ESE,112,5.4,7.6,0,0.00,,---,0.04,VWS V14.01,2013-02-23 10:42:00,
2013-02-23 05:47:00,0.0,0.0,30.12,ESE,107,4.0,4.9,0,0.00,,---,0.04,VWS V14.01,2013-02-23 10:47:00,
2013-02-23 05:52:00,0.0,0.0,30.12,SE,137,5.4,5.8,0,0.00,,---,0.04,VWS V14.01,2013-02-23 10:52:00,
2013-02-23 05:57:00,0.0,0.0,30.12,ESE,119,7.6,7.6,0,0.00,,---,0.04,VWS V14.01,2013-02-23 10:57:00,
2013-02-23 06:03:00,0.0,0.0,30.12,ESE,121,6.3,6.3,0,0.00,,---,0.04,VWS V14.01,2013-02-23 11:03:00,
2013-02-23 06:08:00,0.0,0.0,30.12,ESE,115,5.8,5.8,0,0.00,,---,0.04,VWS V14.01,2013-02-23 11:08:00,
2013-02-23 06:13:00,0.0,0.0,30.12,ESE,103,5.4,7.6,0,0.00,,---,0.04,VWS V14.01,2013-02-23 11:13:00,
2013-02-23 06:18:00,0.0,0.0,30.12,ESE,120,6.3,6.3,0,0.00,,---,0.04,VWS V14.01,2013-02-23 11:18:00,
2013-02-23 06:23:00,0.0,0.0,30.12,ESE,105,5.4,5.8,0,0.00,,---,0.04,VWS V14.01,2013-02-23 11:23:00,
2013-02-23 06:28:00,0.0,0.0,30.12,ESE,111,3.6,5.8,0,0.00,,---,0.04,VWS V14.01,2013-02-23 11:28:00,
2013-02-23 06:33:00,0.0,0.0,30.12,SE,124,8.1,8.1,0,0.00,,---,0.04,VWS V14.01,2013-02-23 11:33:00,
2013-02-23 06:38:00,0.0,0.0,30.12,ESE,120,4.0,5.8,0,0.00,,---,0.04,VWS V14.01,2013-02-23 11:38:00,
2013-02-23 06:43:00,0.0,0.0,30.12,ESE,112,5.8,5.8,0,0.00,,---,0.04,VWS V14.01,2013-02-23 11:43:00,
2013-02-23 06:48:00,0.0,0.0,30.12,ESE,110,5.4,6.3,0,0.00,,---,0.04,VWS V14.01,2013-02-23 11:48:00,
2013-02-23 06:53:00,0.0,0.0,30.12,ESE,118,3.6,5.4,0,0.00,,---,0.04,VWS V14.01,2013-02-23 11:53:00,
2013-02-23 06:58:00,0.0,0.0,30.12,ESE,102,5.8,7.2,0,0.00,,---,0.04,VWS V14.01,2013-02-23 11:58:00,
2013-02-23 07:03:00,0.0,0.0,30.12,ESE,110,5.4,5.8,0,0.00,,---,0.04,VWS V14.01,2013-02-23 12:03:00,
2013-02-23 07:08:00,0.0,0.0,30.12,ESE,102,3.6,4.0,0,0.00,,---,0.04,VWS V14.01,2013-02-23 12:08:00,
2013-02-23 07:13:00,0.0,0.0,30.12,SE,124,5.4,5.4,0,0.00,,---,0.04,VWS V14.01,2013-02-23 12:13:00,
2013-02-23 07:18:00,0.0,0.0,30.12,ESE,114,8.3,8.3,0,0.00,,---,0.04,VWS V14.01,2013-02-23 12:18:00,
2013-02-23 07:23:00,0.0,0.0,30.12,ESE,118,4.9,7.2,0,0.00,,---,0.04,VWS V14.01,2013-02-23 12:23:00,
2013-02-23 07:28:00,0.0,0.0,30.12,ESE,112,3.6,3.6,0,0.00,,---,0.04,VWS V14.01,2013-02-23 12:28:00,
2013-02-23 07:33:00,0.0,0.0,30.12,ESE,102,5.8,5.8,0,0.00,,---,0.00,VWS V14.01,2013-02-23 12:33:00,
2013-02-23 07:38:00,0.0,0.0,30.12,East,84,5.8,8.1,0,0.00,,---,0.04,VWS V14.01,2013-02-23 12:38:00,
2013-02-23 07:43:00,0.0,0.0,30.09,East,100,8.3,8.3,0,0.00,,---,0.04,VWS V14.01,2013-02-23 12:43:00,
2013-02-23 07:48:00,0.0,0.0,30.09,ESE,120,5.4,8.7,0,0.00,,---,0.04,VWS V14.01,2013-02-23 12:48:00,
2013-02-23 07:53:00,0.0,0.0,30.09,SE,130,8.1,8.1,0,0.00,,---,0.04,VWS V14.01,2013-02-23 12:53:00,
2013-02-23 07:58:00,0.0,0.0,30.09,ESE,121,7.6,7.6,0,0.00,,---,0.04,VWS V14.01,2013-02-23 12:58:00,
2013-02-23 08:03:00,0.0,0.0,30.09,ESE,123,8.1,8.1,0,0.00,,---,0.04,VWS V14.01,2013-02-23 13:03:00,
2013-02-23 08:08:00,0.0,0.0,30.09,SE,125,8.7,8.7,0,0.00,,---,0.04,VWS V14.01,2013-02-23 13:08:00,
2013-02-23 08:13:00,0.0,0.0,30.09,ESE,108,5.4,5.4,0,0.00,,---,0.04,VWS V14.01,2013-02-23 13:13:00,
2013-02-23 08:18:00,0.0,0.0,30.09,ESE,121,4.9,5.8,0,0.00,,---,0.04,VWS V14.01,2013-02-23 13:18:00,
2013-02-23 08:23:00,0.0,0.0,30.09,ESE,118,8.1,8.3,0,0.00,,---,0.04,VWS V14.01,2013-02-23 13:23:00,
2013-02-23 08:28:00,0.0,0.0,30.09,ESE,106,8.1,8.1,0,0.00,,---,0.04,VWS V14.01,2013-02-23 13:28:00,
2013-02-23 08:33:00,0.0,0.0,30.09,ESE,114,6.3,6.3,0,0.00,,---,0.04,VWS V14.01,2013-02-23 13:33:00,
2013-02-23 08:38:00,0.0,0.0,30.09,SE,134,8.1,8.1,0,0.00,,---,0.04,VWS V14.01,2013-02-23 13:38:00,
2013-02-23 08:43:00,0.0,0.0,30.09,SE,131,10.1,10.1,0,0.00,,---,0.04,VWS V14.01,2013-02-23 13:43:00,
2013-02-23 08:48:00,0.0,0.0,30.09,ESE,118,8.3,12.8,0,0.00,,---,0.04,VWS V14.01,2013-02-23 13:48:00,
2013-02-23 08:53:00,0.0,0.0,30.09,ESE,115,10.1,10.1,0,0.00,,---,0.04,VWS V14.01,2013-02-23 13:53:00,
2013-02-23 08:58:00,0.0,0.0,30.06,ESE,111,5.8,7.6,0,0.00,,---,0.00,VWS V14.01,2013-02-23 13:58:00,
2013-02-23 09:03:00,0.0,0.0,30.06,East,100,4.0,4.0,0,0.00,,---,0.04,VWS V14.01,2013-02-23 14:03:00,
2013-02-23 09:08:00,0.0,0.0,30.06,SE,133,11.0,11.0,0,0.00,,---,0.04,VWS V14.01,2013-02-23 14:08:00,
2013-02-23 09:13:00,0.0,0.0,30.03,ESE,110,11.0,11.9,0,0.00,,---,0.04,VWS V14.01,2013-02-23 14:13:00,
2013-02-23 09:18:00,0.0,0.0,30.03,SE,127,11.0,12.3,0,0.00,,---,0.04,VWS V14.01,2013-02-23 14:18:00,
2013-02-23 09:23:00,0.0,0.0,30.03,ESE,112,8.7,10.5,0,0.00,,---,0.04,VWS V14.01,2013-02-23 14:23:00,
2013-02-23 09:28:00,0.0,0.0,30.03,ESE,116,10.1,10.1,0,0.00,,---,0.04,VWS V14.01,2013-02-23 14:28:00,
2013-02-23 09:33:00,0.0,0.0,30.03,ESE,103,6.3,7.6,0,0.00,,---,0.04,VWS V14.01,2013-02-23 14:33:00,
2013-02-23 09:38:00,0.0,0.0,30.03,ESE,106,8.1,8.3,0,0.00,,---,0.04,VWS V14.01,2013-02-23 14:38:00,
2013-02-23 09:43:00,0.0,0.0,30.03,ESE,102,8.1,8.1,0,0.00,,---,0.04,VWS V14.01,2013-02-23 14:43:00,
2013-02-23 09:48:00,0.0,0.0,30.03,East,100,5.4,8.1,0,0.00,,---,0.04,VWS V14.01,2013-02-23 14:48:00,
2013-02-23 09:53:00,0.0,0.0,30.03,East,92,5.4,6.3,0,0.00,,---,0.04,VWS V14.01,2013-02-23 14:53:00,
2013-02-23 09:58:00,0.0,0.0,30.03,East,82,4.0,5.4,0,0.00,,---,0.04,VWS V14.01,2013-02-23 14:58:00,
2013-02-23 10:03:00,0.0,0.0,30.03,East,96,5.4,5.4,0,0.00,,---,0.04,VWS V14.01,2013-02-23 15:03:00,
2013-02-23 10:08:00,0.0,0.0,30.03,ESE,119,5.8,6.3,0,0.00,,---,0.04,VWS V14.01,2013-02-23 15:08:00,
2013-02-23 10:13:00,0.0,0.0,30.03,ENE,77,4.9,5.4,0,0.00,,---,0.04,VWS V14.01,2013-02-23 15:13:00,
2013-02-23 10:18:00,0.0,0.0,30.03,East,101,4.0,4.0,0,0.00,,---,0.04,VWS V14.01,2013-02-23 15:18:00,
2013-02-23 10:23:00,0.0,0.0,30.03,ESE,117,6.3,6.3,0,0.00,,---,0.00,VWS V14.01,2013-02-23 15:23:00,
2013-02-23 10:28:00,0.0,0.0,30.03,East,96,8.1,9.2,0,0.04,,---,0.08,VWS V14.01,2013-02-23 15:28:00,
2013-02-23 10:33:00,0.0,0.0,30.03,East,92,5.4,8.7,0,0.04,,---,0.08,VWS V14.01,2013-02-23 15:33:00,
2013-02-23 10:38:00,0.0,0.0,30.03,East,99,5.8,7.6,0,0.04,,---,0.08,VWS V14.01,2013-02-23 15:38:00,
2013-02-23 10:43:00,0.0,0.0,30.00,ESE,103,5.4,5.4,0,0.04,,---,0.08,VWS V14.01,2013-02-23 15:43:00,
2013-02-23 10:48:00,0.0,0.0,30.00,ESE,114,8.3,10.5,0,0.04,,---,0.08,VWS V14.01,2013-02-23 15:48:00,
2013-02-23 10:53:00,0.0,0.0,30.00,East,81,8.3,8.3,0,0.04,,---,0.08,VWS V14.01,2013-02-23 15:53:00,
2013-02-23 10:58:00,0.0,0.0,30.00,ESE,103,4.9,5.4,0,0.04,,---,0.08,VWS V14.01,2013-02-23 15:58:00,
2013-02-23 11:03:00,0.0,0.0,30.00,East,86,5.8,5.8,0,0.04,,---,0.08,VWS V14.01,2013-02-23 16:03:00,
2013-02-23 11:08:00,0.0,0.0,30.00,ENE,68,6.3,7.6,0,0.04,,---,0.08,VWS V14.01,2013-02-23 16:08:00,
2013-02-23 11:13:00,0.0,0.0,29.97,East,84,5.4,6.3,0,0.04,,---,0.08,VWS V14.01,2013-02-23 16:13:00,
2013-02-23 11:18:00,0.0,0.0,29.97,ENE,68,4.0,5.4,0,0.08,,---,0.12,VWS V14.01,2013-02-23 16:18:00,
2013-02-23 11:23:00,0.0,0.0,29.97,ENE,67,5.4,5.4,0,0.08,,---,0.12,VWS V14.01,2013-02-23 16:23:00,
2013-02-23 11:28:00,0.0,0.0,29.97,ENE,70,4.0,6.3,0,0.08,,---,0.12,VWS V14.01,2013-02-23 16:28:00,
2013-02-23 11:33:00,0.0,0.0,29.97,ENE,66,3.6,4.9,0,0.04,,---,0.12,VWS V14.01,2013-02-23 16:33:00,
2013-02-23 11:38:00,0.0,0.0,29.97,ENE,71,6.3,7.6,0,0.04,,---,0.12,VWS V14.01,2013-02-23 16:38:00,
2013-02-23 11:43:00,0.0,0.0,29.97,East,91,4.0,5.8,0,0.04,,---,0.12,VWS V14.01,2013-02-23 16:43:00,
2013-02-23 11:48:00,0.0,0.0,29.97,ENE,68,3.6,7.2,0,0.04,,---,0.12,VWS V14.01,2013-02-23 16:48:00,
2013-02-23 11:53:00,0.0,0.0,29.97,East,83,5.4,5.4,0,0.04,,---,0.12,VWS V14.01,2013-02-23 16:53:00,
2013-02-23 11:58:00,0.0,0.0,29.97,East,82,3.6,4.9,0,0.04,,---,0.12,VWS V14.01,2013-02-23 16:58:00,
2013-02-23 12:03:00,0.0,0.0,29.97,East,92,4.0,5.8,0,0.04,,---,0.12,VWS V14.01,2013-02-23 17:03:00,
2013-02-23 12:08:00,0.0,0.0,29.97,East,100,4.0,5.8,0,0.04,,---,0.12,VWS V14.01,2013-02-23 17:08:00,
2013-02-23 12:13:00,0.0,0.0,29.94,East,88,6.7,7.6,0,0.04,,---,0.12,VWS V14.01,2013-02-23 17:13:00,
2013-02-23 12:18:00,0.0,0.0,29.94,ESE,105,7.6,7.6,0,0.04,,---,0.16,VWS V14.01,2013-02-23 17:18:00,
2013-02-23 12:23:00,0.0,0.0,29.94,SE,126,5.4,7.6,0,0.04,,---,0.16,VWS V14.01,2013-02-23 17:23:00,
2013-02-23 12:28:00,0.0,0.0,29.94,East,100,5.4,7.6,0,0.04,,---,0.16,VWS V14.01,2013-02-23 17:28:00,
2013-02-23 12:33:00,0.0,0.0,29.94,ESE,123,8.3,8.3,0,0.04,,---,0.16,VWS V14.01,2013-02-23 17:33:00,
2013-02-23 12:38:00,0.0,0.0,29.94,East,85,5.8,8.7,0,0.04,,---,0.16,VWS V14.01,2013-02-23 17:38:00,
2013-02-23 12:43:00,0.0,0.0,29.91,SE,130,11.4,14.5,0,0.04,,---,0.16,VWS V14.01,2013-02-23 17:43:00,
2013-02-23 12:48:00,0.0,0.0,29.91,SE,125,12.8,12.8,0,0.04,,---,0.16,VWS V14.01,2013-02-23 17:48:00,
2013-02-23 12:53:00,0.0,0.0,29.91,East,95,7.6,8.3,0,0.04,,---,0.16,VWS V14.01,2013-02-23 17:53:00,
2013-02-23 12:58:00,0.0,0.0,29.88,ESE,113,10.1,10.1,0,0.04,,---,0.16,VWS V14.01,2013-02-23 17:58:00,
2013-02-23 13:03:00,0.0,0.0,29.88,South,172,8.7,12.3,0,0.04,,---,0.16,VWS V14.01,2013-02-23 18:03:00,
2013-02-23 13:08:00,0.0,0.0,29.88,SE,145,12.8,14.1,0,0.04,,---,0.16,VWS V14.01,2013-02-23 18:08:00,
2013-02-23 13:13:00,0.0,0.0,29.88,SSE,157,10.5,17.0,0,0.04,,---,0.16,VWS V14.01,2013-02-23 18:13:00,
2013-02-23 13:18:00,0.0,0.0,29.88,SE,133,10.5,15.0,0,0.00,,---,0.16,VWS V14.01,2013-02-23 18:18:00,
2013-02-23 13:23:00,0.0,0.0,29.88,SSE,149,13.6,13.6,0,0.00,,---,0.16,VWS V14.01,2013-02-23 18:23:00,
2013-02-23 13:28:00,0.0,0.0,29.88,SSE,156,10.1,12.8,0,0.00,,---,0.16,VWS V14.01,2013-02-23 18:28:00,
2013-02-23 13:33:00,0.0,0.0,29.88,SE,139,11.0,13.2,0,0.00,,---,0.16,VWS V14.01,2013-02-23 18:33:00,
2013-02-23 13:38:00,0.0,0.0,29.88,SE,135,12.8,12.8,0,0.00,,---,0.16,VWS V14.01,2013-02-23 18:38:00,
2013-02-23 13:44:00,0.0,0.0,29.85,SSE,153,11.0,15.4,0,0.00,,---,0.16,VWS V14.01,2013-02-23 18:44:00,
2013-02-23 13:49:00,0.0,0.0,29.85,SE,140,10.5,15.0,0,0.00,,---,0.16,VWS V14.01,2013-02-23 18:49:00,
2013-02-23 13:54:00,0.0,0.0,29.85,SSE,166,15.0,15.0,0,0.00,,---,0.16,VWS V14.01,2013-02-23 18:54:00,
2013-02-23 13:59:00,0.0,0.0,29.85,South,177,12.8,12.8,0,0.00,,---,0.16,VWS V14.01,2013-02-23 18:59:00,
2013-02-23 14:04:00,0.0,0.0,29.85,SE,143,10.1,13.2,0,0.00,,---,0.16,VWS V14.01,2013-02-23 19:04:00,
2013-02-23 14:09:00,0.0,0.0,29.85,SSE,160,11.0,11.0,0,0.00,,---,0.16,VWS V14.01,2013-02-23 19:09:00,
2013-02-23 14:14:00,0.0,0.0,29.85,SSE,155,11.4,15.4,0,0.00,,---,0.16,VWS V14.01,2013-02-23 19:14:00,
2013-02-23 14:19:00,0.0,0.0,29.85,ESE,117,12.8,14.5,0,0.00,,---,0.16,VWS V14.01,2013-02-23 19:19:00,
2013-02-23 14:24:00,0.0,0.0,29.85,SE,135,8.7,12.8,0,0.00,,---,0.16,VWS V14.01,2013-02-23 19:24:00,
2013-02-23 14:29:00,0.0,0.0,29.83,SE,126,11.0,13.2,0,0.00,,---,0.00,VWS V14.01,2013-02-23 19:29:00,
2013-02-23 14:34:00,0.0,0.0,29.83,SE,126,8.7,10.1,0,0.00,,---,0.16,VWS V14.01,2013-02-23 19:34:00,
2013-02-23 14:39:00,0.0,0.0,29.83,ESE,123,10.5,12.8,0,0.00,,---,0.16,VWS V14.01,2013-02-23 19:39:00,
2013-02-23 14:44:00,0.0,0.0,29.83,SE,133,8.3,15.4,0,0.00,,---,0.16,VWS V14.01,2013-02-23 19:44:00,
2013-02-23 14:49:00,0.0,0.0,29.83,SE,144,13.2,13.2,0,0.00,,---,0.16,VWS V14.01,2013-02-23 19:49:00,
2013-02-23 14:54:00,0.0,0.0,29.83,SSE,157,12.3,13.2,0,0.00,,---,0.16,VWS V14.01,2013-02-23 19:54:00,
2013-02-23 14:59:00,0.0,0.0,29.83,SE,124,11.0,14.5,0,0.00,,---,0.16,VWS V14.01,2013-02-23 19:59:00,
2013-02-23 15:04:00,0.0,0.0,29.83,SE,138,10.1,10.1,0,0.00,,---,0.16,VWS V14.01,2013-02-23 20:04:00,
2013-02-23 15:09:00,0.0,0.0,29.83,SE,132,5.4,7.6,0,0.00,,---,0.16,VWS V14.01,2013-02-23 20:09:00,
2013-02-23 15:14:00,0.0,0.0,29.85,NE,46,3.6,5.4,0,0.00,,---,0.16,VWS V14.01,2013-02-23 20:14:00,
2013-02-23 15:19:00,0.0,0.0,29.85,NNE,31,3.6,5.4,0,0.00,,---,0.16,VWS V14.01,2013-02-23 20:19:00,
2013-02-23 15:24:00,0.0,0.0,29.85,NNE,25,3.6,7.6,0,0.00,,---,0.16,VWS V14.01,2013-02-23 20:24:00,
2013-02-23 15:29:00,0.0,0.0,29.83,ENE,74,5.4,5.4,0,0.00,,---,0.16,VWS V14.01,2013-02-23 20:29:00,
2013-02-23 15:34:00,0.0,0.0,29.83,East,85,5.8,8.3,0,0.00,,---,0.16,VWS V14.01,2013-02-23 20:34:00,
2013-02-23 15:39:00,0.0,0.0,29.83,NE,55,4.0,4.0,0,0.00,,---,0.16,VWS V14.01,2013-02-23 20:39:00,
2013-02-23 15:44:00,0.0,0.0,29.85,NNE,19,2.7,5.4,0,0.00,,---,0.16,VWS V14.01,2013-02-23 20:44:00,
2013-02-23 15:49:00,0.0,0.0,29.85,NE,43,3.6,5.4,0,0.00,,---,0.16,VWS V14.01,2013-02-23 20:49:00,
2013-02-23 15:54:00,0.0,0.0,29.85,NNE,20,5.4,5.8,0,0.00,,---,0.16,VWS V14.01,2013-02-23 20:54:00,
2013-02-23 15:59:00,0.0,0.0,29.85,East,84,5.8,7.6,0,0.00,,---,0.16,VWS V14.01,2013-02-23 20:59:00,
2013-02-23 16:04:00,0.0,0.0,29.85,NNE,30,6.3,6.3,0,0.00,,---,0.16,VWS V14.01,2013-02-23 21:04:00,
2013-02-23 16:09:00,0.0,0.0,29.85,NNE,31,3.6,5.4,0,0.00,,---,0.16,VWS V14.01,2013-02-23 21:09:00,
2013-02-23 16:14:00,0.0,0.0,29.85,ENE,59,7.6,8.1,0,0.00,,---,0.16,VWS V14.01,2013-02-23 21:14:00,
2013-02-23 16:19:00,0.0,0.0,29.85,NE,36,6.3,6.3,0,0.00,,---,0.16,VWS V14.01,2013-02-23 21:19:00,
2013-02-23 16:24:00,0.0,0.0,29.85,North,11,6.3,6.3,0,0.00,,---,0.16,VWS V14.01,2013-02-23 21:24:00,
2013-02-23 16:29:00,0.0,0.0,29.85,North,357,4.9,5.4,0,0.00,,---,0.16,VWS V14.01,2013-02-23 21:29:00,
2013-02-23 16:34:00,0.0,0.0,29.85,North,3,6.3,7.6,0,0.00,,---,0.16,VWS V14.01,2013-02-23 21:34:00,
2013-02-23 16:39:00,0.0,0.0,29.85,NE,40,3.6,4.9,0,0.00,,---,0.16,VWS V14.01,2013-02-23 21:39:00,
2013-02-23 16:44:00,0.0,0.0,29.85,NNE,15,0.0,0.0,0,0.00,,---,0.16,VWS V14.01,2013-02-23 21:44:00,
2013-02-23 16:49:00,0.0,0.0,29.85,NE,38,3.1,3.1,0,0.00,,---,0.16,VWS V14.01,2013-02-23 21:49:00,
2013-02-23 16:54:00,0.0,0.0,29.85,NNE,19,5.4,5.4,0,0.00,,---,0.00,VWS V14.01,2013-02-23 21:54:00,
2013-02-23 16:59:00,0.0,0.0,29.85,North,2,4.0,5.4,0,0.00,,---,0.16,VWS V14.01,2013-02-23 21:59:00,
2013-02-23 17:04:00,0.0,0.0,29.85,NNE,24,4.9,5.4,0,0.00,,---,0.16,VWS V14.01,2013-02-23 22:04:00,
2013-02-23 17:09:00,0.0,0.0,29.85,NE,55,4.0,5.4,0,0.00,,---,0.16,VWS V14.01,2013-02-23 22:09:00,
2013-02-23 17:14:00,0.0,0.0,29.83,NE,45,4.9,4.9,0,0.00,,---,0.16,VWS V14.01,2013-02-23 22:14:00,
2013-02-23 17:19:00,0.0,0.0,29.83,NNE,31,7.6,7.6,0,0.00,,---,0.16,VWS V14.01,2013-02-23 22:19:00,
2013-02-23 17:24:00,0.0,0.0,29.83,NE,38,5.4,6.3,0,0.00,,---,0.16,VWS V14.01,2013-02-23 22:24:00,
2013-02-23 17:29:00,0.0,0.0,29.83,NNE,30,8.1,8.1,0,0.00,,---,0.16,VWS V14.01,2013-02-23 22:29:00,
2013-02-23 17:34:00,0.0,0.0,29.83,NE,46,6.3,8.1,0,0.00,,---,0.16,VWS V14.01,2013-02-23 22:34:00,
2013-02-23 17:39:00,0.0,0.0,29.83,NE,34,8.1,8.1,0,0.00,,---,0.16,VWS V14.01,2013-02-23 22:39:00,
2013-02-23 17:44:00,0.0,0.0,29.83,NNE,25,4.0,5.8,0,0.00,,---,0.16,VWS V14.01,2013-02-23 22:44:00,
2013-02-23 17:49:00,0.0,0.0,29.83,NE,54,5.4,8.1,0,0.00,,---,0.16,VWS V14.01,2013-02-23 22:49:00,
2013-02-23 17:54:00,0.0,0.0,29.83,ENE,62,3.6,8.1,0,0.00,,---,0.16,VWS V14.01,2013-02-23 22:54:00,
2013-02-23 17:59:00,0.0,0.0,29.83,NNE,26,7.6,7.6,0,0.00,,---,0.16,VWS V14.01,2013-02-23 22:59:00,
2013-02-23 18:04:00,0.0,0.0,29.83,NNE,30,8.3,8.3,0,0.00,,---,0.16,VWS V14.01,2013-02-23 23:04:00,
2013-02-23 18:09:00,0.0,0.0,29.83,NNE,27,6.3,8.3,0,0.00,,---,0.16,VWS V14.01,2013-02-23 23:09:00,
2013-02-23 18:14:00,0.0,0.0,29.83,North,7,5.8,7.6,0,0.00,,---,0.16,VWS V14.01,2013-02-23 23:14:00,
2013-02-23 18:19:00,0.0,0.0,29.83,NNE,19,8.7,8.7,0,0.00,,---,0.16,VWS V14.01,2013-02-23 23:19:00,
2013-02-23 18:24:00,0.0,0.0,29.83,North,5,10.1,10.1,0,0.00,,---,0.16,VWS V14.01,2013-02-23 23:24:00,
2013-02-23 18:29:00,0.0,0.0,29.83,NE,51,4.9,4.9,0,0.00,,---,0.16,VWS V14.01,2013-02-23 23:29:00,
2013-02-23 18:34:00,0.0,0.0,29.83,NNE,29,4.0,5.4,0,0.00,,---,0.16,VWS V14.01,2013-02-23 23:34:00,
2013-02-23 18:39:00,0.0,0.0,29.83,NNE,22,5.4,8.1,0,0.00,,---,0.00,VWS V14.01,2013-02-23 23:39:00,
2013-02-23 18:44:00,0.0,0.0,29.83,NNE,24,4.9,7.6,0,0.00,,---,0.16,VWS V14.01,2013-02-23 23:44:00,
2013-02-23 18:49:00,0.0,0.0,29.83,North,5,4.9,4.9,0,0.00,,---,0.16,VWS V14.01,2013-02-23 23:49:00,
2013-02-23 18:54:00,0.0,0.0,29.83,NNE,23,5.4,5.4,0,0.00,,---,0.16,VWS V14.01,2013-02-23 23:54:00,
2013-02-23 18:59:00,0.0,0.0,29.80,North,8,3.6,4.9,0,0.00,,---,0.16,VWS V14.01,2013-02-23 23:59:00,
2013-02-23 19:04:00,0.0,0.0,29.80,NNE,32,3.1,6.3,0,0.00,,---,0.16,VWS V14.01,2013-02-24 00:04:00,
2013-02-23 19:09:00,0.0,0.0,29.80,NE,49,3.6,4.9,0,0.00,,---,0.16,VWS V14.01,2013-02-24 00:09:00,
2013-02-23 19:14:00,0.0,0.0,29.83,NNE,16,2.7,4.9,0,0.00,,---,0.00,VWS V14.01,2013-02-24 00:14:00,
2013-02-23 19:19:00,0.0,0.0,29.83,NNE,14,2.7,5.4,0,0.00,,---,0.00,VWS V14.01,2013-02-24 00:19:00,
2013-02-23 19:24:00,0.0,0.0,29.83,NE,36,7.6,7.6,0,0.00,,---,0.16,VWS V14.01,2013-02-24 00:24:00,
2013-02-23 19:29:00,0.0,0.0,29.83,North,353,3.6,3.6,0,0.00,,---,0.16,VWS V14.01,2013-02-24 00:29:00,
2013-02-23 19:34:00,0.0,0.0,29.83,NNE,15,2.7,5.8,0,0.00,,---,0.16,VWS V14.01,2013-02-24 00:34:00,
2013-02-23 19:39:00,0.0,0.0,29.83,North,357,8.1,8.1,0,0.00,,---,0.16,VWS V14.01,2013-02-24 00:39:00,
2013-02-23 19:44:00,0.0,0.0,29.83,North,10,4.9,5.4,0,0.00,,---,0.16,VWS V14.01,2013-02-24 00:44:00,
2013-02-23 19:49:00,0.0,0.0,29.83,NNE,31,4.0,10.1,0,0.00,,---,0.16,VWS V14.01,2013-02-24 00:49:00,
2013-02-23 19:54:00,0.0,0.0,29.83,NE,49,7.6,10.1,0,0.00,,---,0.00,VWS V14.01,2013-02-24 00:54:00,
2013-02-23 19:59:00,0.0,0.0,29.83,North,357,6.3,8.7,0,0.00,,---,0.16,VWS V14.01,2013-02-24 00:59:00,
2013-02-23 20:04:00,0.0,0.0,29.83,NE,46,4.0,11.0,0,0.00,,---,0.16,VWS V14.01,2013-02-24 01:04:00,
2013-02-23 20:09:00,0.0,0.0,29.83,NE,46,8.3,8.3,0,0.00,,---,0.16,VWS V14.01,2013-02-24 01:09:00,
2013-02-23 20:14:00,0.0,0.0,29.80,NE,52,5.4,5.8,0,0.00,,---,0.16,VWS V14.01,2013-02-24 01:14:00,
2013-02-23 20:19:00,0.0,0.0,29.80,NE,53,5.4,5.8,0,0.00,,---,0.16,VWS V14.01,2013-02-24 01:19:00,
2013-02-23 20:24:00,0.0,0.0,29.80,NNE,33,5.4,5.4,0,0.00,,---,0.16,VWS V14.01,2013-02-24 01:24:00,
2013-02-23 20:29:00,0.0,0.0,29.80,NNE,21,7.6,7.6,0,0.00,,---,0.16,VWS V14.01,2013-02-24 01:29:00,
2013-02-23 20:34:00,0.0,0.0,29.80,NNE,28,4.9,10.5,0,0.00,,---,0.16,VWS V14.01,2013-02-24 01:34:00,
2013-02-23 20:39:00,0.0,0.0,29.80,NE,35,11.0,11.0,0,0.00,,---,0.16,VWS V14.01,2013-02-24 01:39:00,
2013-02-23 20:44:00,0.0,0.0,29.80,North,11,10.1,10.1,0,0.00,,---,0.16,VWS V14.01,2013-02-24 01:44:00,
2013-02-23 20:50:00,0.0,0.0,29.80,NE,49,8.1,8.7,0,0.00,,---,0.16,VWS V14.01,2013-02-24 01:50:00,
2013-02-23 20:55:00,0.0,0.0,29.80,NE,46,5.8,12.3,0,0.00,,---,0.16,VWS V14.01,2013-02-24 01:55:00,
2013-02-23 21:00:00,0.0,0.0,29.80,NE,39,10.1,11.0,0,0.00,,---,0.16,VWS V14.01,2013-02-24 02:00:00,
2013-02-23 21:05:00,0.0,0.0,29.80,NE,53,8.7,11.9,0,0.00,,---,0.16,VWS V14.01,2013-02-24 02:05:00,
2013-02-23 21:10:00,0.0,0.0,29.80,NE,46,11.0,11.0,0,0.00,,---,0.00,VWS V14.01,2013-02-24 02:10:00,
2013-02-23 21:15:00,0.0,0.0,29.80,ENE,58,10.5,12.8,0,0.00,,---,0.16,VWS V14.01,2013-02-24 02:15:00,
2013-02-23 21:20:00,0.0,0.0,29.80,NE,48,4.9,7.2,0,0.00,,---,0.16,VWS V14.01,2013-02-24 02:20:00,
2013-02-23 21:25:00,0.0,0.0,29.80,NE,56,8.1,8.7,0,0.00,,---,0.16,VWS V14.01,2013-02-24 02:25:00,
2013-02-23 21:30:00,0.0,0.0,29.80,NE,39,5.8,8.7,0,0.00,,---,0.16,VWS V14.01,2013-02-24 02:30:00,
2013-02-23 21:35:00,0.0,0.0,29.80,NNE,25,5.4,6.3,0,0.00,,---,0.16,VWS V14.01,2013-02-24 02:35:00,
2013-02-23 21:40:00,0.0,0.0,29.80,ENE,59,4.9,8.7,0,0.00,,---,0.16,VWS V14.01,2013-02-24 02:40:00,
2013-02-23 21:45:00,0.0,0.0,29.80,NNE,17,5.4,8.7,0,0.00,,---,0.16,VWS V14.01,2013-02-24 02:45:00,
2013-02-23 21:50:00,0.0,0.0,29.80,NNE,27,5.8,10.1,0,0.00,,---,0.16,VWS V14.01,2013-02-24 02:50:00,
2013-02-23 21:55:00,0.0,0.0,29.80,NE,52,8.3,8.7,0,0.00,,---,0.16,VWS V14.01,2013-02-24 02:55:00,
2013-02-23 22:00:00,0.0,0.0,29.80,NNE,30,10.1,10.5,0,0.00,,---,0.16,VWS V14.01,2013-02-24 03:00:00,
2013-02-23 22:05:00,0.0,0.0,29.80,NE,54,4.5,6.7,0,0.00,,---,0.00,VWS V14.01,2013-02-24 03:05:00,
2013-02-23 22:10:00,0.0,0.0,29.80,North,353,8.1,8.1,0,0.00,,---,0.16,VWS V14.01,2013-02-24 03:10:00,
2013-02-23 22:15:00,0.0,0.0,29.80,NNW,331,6.7,6.7,0,0.00,,---,0.16,VWS V14.01,2013-02-24 03:15:00,
2013-02-23 22:20:00,0.0,0.0,29.80,NE,37,3.1,8.1,0,0.00,,---,0.16,VWS V14.01,2013-02-24 03:20:00,
2013-02-23 22:25:00,0.0,0.0,29.80,NE,37,7.6,7.6,0,0.00,,---,0.16,VWS V14.01,2013-02-24 03:25:00,
2013-02-23 22:30:00,0.0,0.0,29.80,NE,52,10.5,10.5,0,0.00,,---,0.16,VWS V14.01,2013-02-24 03:30:00,
2013-02-23 22:35:00,0.0,0.0,29.80,North,2,8.1,8.1,0,0.00,,---,0.16,VWS V14.01,2013-02-24 03:35:00,
2013-02-23 22:40:00,0.0,0.0,29.80,NNE,27,4.0,5.8,0,0.00,,---,0.16,VWS V14.01,2013-02-24 03:40:00,
2013-02-23 22:45:00,0.0,0.0,29.77,North,11,5.4,5.4,0,0.00,,---,0.00,VWS V14.01,2013-02-24 03:45:00,
2013-02-23 22:50:00,0.0,0.0,29.77,NNW,343,5.8,5.8,0,0.00,,---,0.16,VWS V14.01,2013-02-24 03:50:00,
2013-02-23 22:55:00,0.0,0.0,29.77,NNW,330,3.1,6.3,0,0.00,,---,0.16,VWS V14.01,2013-02-24 03:55:00,
2013-02-23 23:00:00,0.0,0.0,29.77,NNE,30,2.7,2.7,0,0.00,,---,0.16,VWS V14.01,2013-02-24 04:00:00,
2013-02-23 23:05:00,0.0,0.0,29.77,NNE,29,5.4,5.8,0,0.00,,---,0.16,VWS V14.01,2013-02-24 04:05:00,
2013-02-23 23:10:00,0.0,0.0,29.77,NNE,24,4.9,5.8,0,0.00,,---,0.16,VWS V14.01,2013-02-24 04:10:00,
2013-02-23 23:15:00,0.0,0.0,29.77,NNE,22,6.3,6.7,0,0.00,,---,0.16,VWS V14.01,2013-02-24 04:15:00,
2013-02-23 23:20:00,0.0,0.0,29.77,NNE,23,4.9,4.9,0,0.00,,---,0.16,VWS V14.01,2013-02-24 04:20:00,
2013-02-23 23:25:00,0.0,0.0,29.77,NNE,29,4.0,5.4,0,0.00,,---,0.16,VWS V14.01,2013-02-24 04:25:00,
2013-02-23 23:30:00,0.0,0.0,29.77,North,357,7.6,7.6,0,0.00,,---,0.16,VWS V14.01,2013-02-24 04:30:00,
2013-02-23 23:35:00,0.0,0.0,29.77,NNE,17,3.6,4.0,0,0.00,,---,0.16,VWS V14.01,2013-02-24 04:35:00,
2013-02-23 23:40:00,0.0,0.0,29.77,NNE,22,2.7,6.3,0,0.00,,---,0.16,VWS V14.01,2013-02-24 04:40:00,
2013-02-23 23:45:00,0.0,0.0,29.80,NNE,19,6.7,6.7,0,0.00,,---,0.16,VWS V14.01,2013-02-24 04:45:00,
2013-02-23 23:50:00,0.0,0.0,29.80,NNE,12,6.3,6.3,0,0.00,,---,0.16,VWS V14.01,2013-02-24 04:50:00,
2013-02-23 23:55:00,0.0,0.0,29.80,North,357,4.0,4.0,0,0.00,,---,0.16,VWS V14.01,2013-02-24 04:55:00,